createdAt,value
2019-01-15T00:00:17.249Z,9.60
2019-01-15T00:01:17.262Z,9.20
2019-01-15T00:02:17.227Z,9.40
2019-01-15T00:03:17.220Z,9.90
2019-01-15T00:04:17.233Z,9.40
2019-01-15T00:05:17.216Z,9.90
2019-01-15T00:06:17.180Z,10.50
2019-01-15T00:07:17.171Z,9.60
2019-01-15T00:08:17.185Z,10.40
2019-01-15T00:09:17.153Z,10.20
2019-01-15T00:10:17.158Z,10.20
2019-01-15T00:11:17.154Z,10.20
2019-01-15T00:12:17.116Z,11.00
2019-01-15T00:13:17.103Z,11.50
2019-01-15T00:14:17.091Z,12.10
2019-01-15T00:15:17.140Z,11.20
2019-01-15T00:16:17.067Z,12.20
2019-01-15T00:17:17.059Z,12.50
2019-01-15T00:18:17.043Z,13.40
2019-01-15T00:19:17.033Z,13.00
2019-01-15T00:20:17.076Z,13.70
2019-01-15T00:21:17.010Z,14.80
2019-01-15T00:22:16.998Z,13.60
2019-01-15T00:23:16.991Z,14.40
2019-01-15T00:24:16.980Z,15.10
2019-01-15T00:25:16.989Z,16.10
2019-01-15T00:26:16.966Z,15.20
2019-01-15T00:27:16.982Z,15.40
2019-01-15T00:28:16.958Z,15.30
2019-01-15T00:29:16.926Z,16.20
2019-01-15T00:30:16.913Z,16.90
2019-01-15T00:31:16.930Z,16.70
2019-01-15T00:32:16.913Z,17.50
2019-01-15T00:33:16.895Z,17.60
2019-01-15T00:34:16.897Z,17.40
2019-01-15T00:35:16.855Z,18.00
2019-01-15T00:36:16.849Z,17.10
2019-01-15T00:37:16.861Z,17.80
2019-01-15T00:38:16.829Z,17.70
2019-01-15T00:39:16.833Z,17.60
2019-01-15T00:40:16.801Z,16.40
2019-01-15T00:41:16.814Z,17.10
2019-01-15T00:42:16.802Z,18.40
2019-01-15T00:43:16.772Z,18.30
2019-01-15T00:44:16.757Z,17.50
2019-01-15T00:45:16.741Z,19.40
2019-01-15T00:46:16.732Z,17.90
2019-01-15T00:47:16.758Z,19.40
2019-01-15T00:48:16.729Z,19.60
2019-01-15T00:49:16.700Z,20.20
2019-01-15T00:50:16.713Z,21.70
2019-01-15T00:51:16.682Z,21.30
2019-01-15T00:52:16.667Z,21.10
2019-01-15T00:53:16.656Z,21.90
2019-01-15T00:54:16.643Z,19.10
2019-01-15T00:55:16.659Z,21.90
2019-01-15T00:56:16.634Z,21.30
2019-01-15T00:57:16.614Z,21.10
2019-01-15T00:58:16.622Z,20.90
2019-01-15T00:59:16.619Z,19.30
2019-01-15T01:00:16.598Z,17.70
2019-01-15T01:01:16.570Z,18.70
2019-01-15T01:02:16.559Z,19.60
2019-01-15T01:03:16.541Z,17.00
2019-01-15T01:04:16.549Z,20.30
2019-01-15T01:05:16.553Z,18.30
2019-01-15T01:06:16.508Z,17.90
2019-01-15T01:07:16.502Z,18.60
2019-01-15T01:08:16.490Z,19.20
2019-01-15T01:09:16.480Z,18.90
2019-01-15T01:10:16.504Z,18.40
2019-01-15T01:11:16.450Z,18.00
2019-01-15T01:12:22.193Z,19.50
2019-01-15T01:13:17.457Z,19.20
2019-01-15T01:14:16.429Z,18.50
2019-01-15T01:15:16.409Z,18.80
2019-01-15T01:16:16.406Z,19.00
2019-01-15T01:17:16.414Z,19.80
2019-01-15T01:18:16.386Z,19.50
2019-01-15T01:19:16.364Z,20.30
2019-01-15T01:20:16.352Z,19.80
2019-01-15T01:21:16.340Z,19.10
2019-01-15T01:22:16.364Z,20.10
2019-01-15T01:23:16.318Z,20.40
2019-01-15T01:24:16.311Z,20.70
2019-01-15T01:25:16.295Z,20.20
2019-01-15T01:26:16.286Z,20.50
2019-01-15T01:27:16.298Z,20.10
2019-01-15T01:28:16.260Z,19.40
2019-01-15T01:29:16.251Z,19.50
2019-01-15T01:30:16.266Z,20.40
2019-01-15T01:31:16.225Z,21.70
2019-01-15T01:32:16.243Z,19.60
2019-01-15T01:33:16.211Z,20.50
2019-01-15T01:34:16.229Z,20.30
2019-01-15T01:35:16.178Z,19.00
2019-01-15T01:36:16.169Z,20.10
2019-01-15T01:37:16.176Z,19.70
2019-01-15T01:38:16.149Z,21.60
2019-01-15T01:39:16.174Z,21.80
2019-01-15T01:40:16.125Z,22.10
2019-01-15T01:41:16.111Z,20.40
2019-01-15T01:42:16.119Z,21.80
2019-01-15T01:43:16.098Z,20.40
2019-01-15T01:44:16.104Z,20.80
2019-01-15T01:45:16.071Z,22.40
2019-01-15T01:46:16.091Z,22.90
2019-01-15T01:47:16.055Z,22.70
2019-01-15T01:48:16.036Z,22.00
2019-01-15T01:49:16.049Z,23.30
2019-01-15T01:50:16.014Z,23.10
2019-01-15T01:51:16.061Z,21.80
2019-01-15T01:52:16.019Z,23.10
2019-01-15T01:53:15.977Z,22.30
2019-01-15T01:54:15.986Z,22.90
2019-01-15T01:55:15.965Z,23.80
2019-01-15T01:56:15.943Z,23.00
2019-01-15T01:57:15.957Z,22.60
2019-01-15T01:58:15.924Z,21.10
2019-01-15T01:59:15.913Z,22.50
2019-01-15T02:00:15.930Z,21.80
2019-01-15T02:01:15.889Z,23.10
2019-01-15T02:02:15.876Z,25.50
2019-01-15T02:03:15.864Z,23.30
2019-01-15T02:04:15.908Z,20.50
2019-01-15T02:05:15.840Z,22.50
2019-01-15T02:06:15.840Z,24.30
2019-01-15T02:07:15.823Z,22.80
2019-01-15T02:08:15.808Z,22.70
2019-01-15T02:09:15.870Z,22.90
2019-01-15T02:10:15.786Z,23.00
2019-01-15T02:11:15.773Z,21.90
2019-01-15T02:12:15.796Z,21.70
2019-01-15T02:13:15.779Z,21.30
2019-01-15T02:14:15.740Z,22.00
2019-01-15T02:15:15.729Z,21.70
2019-01-15T02:16:15.719Z,21.40
2019-01-15T02:17:15.711Z,21.50
2019-01-15T02:18:15.740Z,20.90
2019-01-15T02:19:15.682Z,20.60
2019-01-15T02:20:15.671Z,19.40
2019-01-15T02:21:15.666Z,19.50
2019-01-15T02:22:15.649Z,19.50
2019-01-15T02:23:15.677Z,19.10
2019-01-15T02:24:15.632Z,19.80
2019-01-15T02:25:15.614Z,20.40
2019-01-15T02:26:15.603Z,19.10
2019-01-15T02:27:15.591Z,19.50
2019-01-15T02:28:15.607Z,21.00
2019-01-15T02:29:15.576Z,20.40
2019-01-15T02:30:15.564Z,20.40
2019-01-15T02:31:15.549Z,19.50
2019-01-15T02:32:15.540Z,19.60
2019-01-15T02:33:15.576Z,18.00
2019-01-15T02:34:15.517Z,18.30
2019-01-15T02:35:15.532Z,19.00
2019-01-15T02:36:15.496Z,19.90
2019-01-15T02:37:15.479Z,19.90
2019-01-15T02:38:15.512Z,19.90
2019-01-15T02:39:15.459Z,18.20
2019-01-15T02:40:15.452Z,19.00
2019-01-15T02:41:15.443Z,19.00
2019-01-15T02:42:15.433Z,19.40
2019-01-15T02:43:15.457Z,17.90
2019-01-15T02:44:15.404Z,18.60
2019-01-15T02:45:15.388Z,17.60
2019-01-15T02:46:15.382Z,17.50
2019-01-15T02:47:15.368Z,17.20
2019-01-15T02:48:15.392Z,17.30
2019-01-15T02:49:15.357Z,16.70
2019-01-15T02:50:15.337Z,17.20
2019-01-15T02:51:15.322Z,17.00
2019-01-15T02:52:15.312Z,16.30
2019-01-15T02:53:15.327Z,16.20
2019-01-15T02:54:15.294Z,16.70
2019-01-15T02:55:15.275Z,15.10
2019-01-15T02:56:15.265Z,15.90
2019-01-15T02:57:15.282Z,16.70
2019-01-15T02:58:15.254Z,16.20
2019-01-15T02:59:15.244Z,17.10
2019-01-15T03:00:15.227Z,15.50
2019-01-15T03:01:15.233Z,15.30
2019-01-15T03:02:15.214Z,15.40
2019-01-15T03:03:15.222Z,16.20
2019-01-15T03:04:15.175Z,15.50
2019-01-15T03:05:15.200Z,16.70
2019-01-15T03:06:15.154Z,16.00
2019-01-15T03:07:15.143Z,15.50
2019-01-15T03:08:15.163Z,14.30
2019-01-15T03:09:15.143Z,13.90
2019-01-15T03:10:15.113Z,14.90
2019-01-15T03:11:15.172Z,13.70
2019-01-15T03:12:15.113Z,13.80
2019-01-15T03:13:15.075Z,14.50
2019-01-15T03:14:15.066Z,14.90
2019-01-15T03:15:15.086Z,15.00
2019-01-15T03:16:15.048Z,14.30
2019-01-15T03:17:15.031Z,15.60
2019-01-15T03:18:15.025Z,14.10
2019-01-15T03:19:15.014Z,14.70
2019-01-15T03:20:15.018Z,14.10
2019-01-15T03:21:14.986Z,14.80
2019-01-15T03:22:15.011Z,15.10
2019-01-15T03:23:15.015Z,13.70
2019-01-15T03:24:14.953Z,13.20
2019-01-15T03:25:14.943Z,14.60
2019-01-15T03:26:14.961Z,15.80
2019-01-15T03:27:14.916Z,14.50
2019-01-15T03:28:14.950Z,14.50
2019-01-15T03:29:14.899Z,14.80
2019-01-15T03:30:14.886Z,14.60
2019-01-15T03:31:14.876Z,14.10
2019-01-15T03:32:14.903Z,13.90
2019-01-15T03:33:14.883Z,14.40
2019-01-15T03:34:14.845Z,14.10
2019-01-15T03:35:14.836Z,14.20
2019-01-15T03:36:14.846Z,14.30
2019-01-15T03:37:14.804Z,13.50
2019-01-15T03:38:14.797Z,13.90
2019-01-15T03:39:14.787Z,13.90
2019-01-15T03:40:14.774Z,14.10
2019-01-15T03:41:14.799Z,13.10
2019-01-15T03:42:14.751Z,12.60
2019-01-15T03:43:14.737Z,12.90
2019-01-15T03:44:14.730Z,12.50
2019-01-15T03:45:14.735Z,11.90
2019-01-15T03:46:14.736Z,13.50
2019-01-15T03:47:14.691Z,12.70
2019-01-15T03:48:14.689Z,12.70
2019-01-15T03:49:14.696Z,13.20
2019-01-15T03:50:14.666Z,13.40
2019-01-15T03:51:14.682Z,13.70
2019-01-15T03:52:14.643Z,13.20
2019-01-15T03:53:14.632Z,13.30
2019-01-15T03:54:14.616Z,13.60
2019-01-15T03:55:14.605Z,13.20
2019-01-15T03:56:14.616Z,13.90
2019-01-15T03:57:14.589Z,13.00
2019-01-15T03:58:14.616Z,14.20
2019-01-15T03:59:14.557Z,14.30
2019-01-15T04:00:14.549Z,13.90
2019-01-15T04:01:14.539Z,13.80
2019-01-15T04:02:14.527Z,12.70
2019-01-15T04:03:14.544Z,13.60
2019-01-15T04:04:14.513Z,12.50
2019-01-15T04:05:14.499Z,13.30
2019-01-15T04:06:14.497Z,14.10
2019-01-15T04:07:14.475Z,14.50
2019-01-15T04:08:14.493Z,13.70
2019-01-15T04:09:14.450Z,15.00
2019-01-15T04:10:14.445Z,15.00
2019-01-15T04:11:14.430Z,14.00
2019-01-15T04:12:14.414Z,13.40
2019-01-15T04:13:14.429Z,14.10
2019-01-15T04:14:14.394Z,15.10
2019-01-15T04:15:14.422Z,14.30
2019-01-15T04:16:14.379Z,13.20
2019-01-15T04:17:14.374Z,13.40
2019-01-15T04:18:14.375Z,15.40
2019-01-15T04:19:14.339Z,14.10
2019-01-15T04:20:14.334Z,13.20
2019-01-15T04:21:14.348Z,14.30
2019-01-15T04:22:14.303Z,14.60
2019-01-15T04:23:14.299Z,14.90
2019-01-15T04:24:14.292Z,13.90
2019-01-15T04:25:14.316Z,15.50
2019-01-15T04:26:14.275Z,15.00
2019-01-15T04:27:14.263Z,14.90
2019-01-15T04:28:14.241Z,15.50
2019-01-15T04:29:14.254Z,15.80
2019-01-15T04:30:14.219Z,14.90
2019-01-15T04:31:14.229Z,15.40
2019-01-15T04:32:14.192Z,15.40
2019-01-15T04:33:14.186Z,15.60
2019-01-15T04:34:14.177Z,14.30
2019-01-15T04:35:14.161Z,13.40
2019-01-15T04:36:14.174Z,14.50
2019-01-15T04:37:14.140Z,14.80
2019-01-15T04:38:14.126Z,15.00
2019-01-15T04:39:14.114Z,14.40
2019-01-15T04:40:14.109Z,14.70
2019-01-15T04:41:14.122Z,13.70
2019-01-15T04:42:14.082Z,14.20
2019-01-15T04:43:19.611Z,13.60
2019-01-15T04:44:15.102Z,13.20
2019-01-15T04:45:14.083Z,13.50
2019-01-15T04:46:14.099Z,14.10
2019-01-15T04:47:14.063Z,13.50
2019-01-15T04:48:14.076Z,12.80
2019-01-15T04:49:14.022Z,14.00
2019-01-15T04:50:14.009Z,13.40
2019-01-15T04:51:14.021Z,13.30
2019-01-15T04:52:13.974Z,12.70
2019-01-15T04:53:13.982Z,13.30
2019-01-15T04:54:13.971Z,14.00
2019-01-15T04:55:13.940Z,12.90
2019-01-15T04:56:14.131Z,13.60
2019-01-15T04:57:13.913Z,13.80
2019-01-15T04:58:13.905Z,12.80
2019-01-15T04:59:13.900Z,12.80
2019-01-15T05:00:13.932Z,12.50
2019-01-15T05:01:13.921Z,13.20
2019-01-15T05:02:13.867Z,12.60
2019-01-15T05:03:13.871Z,13.50
2019-01-15T05:04:13.835Z,12.60
2019-01-15T05:05:13.827Z,13.10
2019-01-15T05:06:13.824Z,12.70
2019-01-15T05:07:13.826Z,13.00
2019-01-15T05:08:13.850Z,13.30
2019-01-15T05:09:13.825Z,12.50
2019-01-15T05:10:13.788Z,12.80
2019-01-15T05:11:13.778Z,11.90
2019-01-15T05:12:13.766Z,12.30
2019-01-15T05:13:13.771Z,11.80
2019-01-15T05:14:13.724Z,11.90
2019-01-15T05:15:13.725Z,12.00
2019-01-15T05:16:13.714Z,12.10
2019-01-15T05:17:13.719Z,10.80
2019-01-15T05:18:13.706Z,10.50
2019-01-15T05:19:13.735Z,11.10
2019-01-15T05:20:13.666Z,11.10
2019-01-15T05:21:13.671Z,9.40
2019-01-15T05:22:13.671Z,10.00
2019-01-15T05:23:13.644Z,10.50
2019-01-15T05:24:13.639Z,9.40
2019-01-15T05:25:13.646Z,10.10
2019-01-15T05:26:13.614Z,10.50
2019-01-15T05:27:13.604Z,10.20
2019-01-15T05:28:13.612Z,10.20
2019-01-15T05:29:13.571Z,11.00
2019-01-15T05:30:13.576Z,10.50
2019-01-15T05:31:13.553Z,9.80
2019-01-15T05:32:13.547Z,10.70
2019-01-15T05:33:13.545Z,10.10
2019-01-15T05:34:13.516Z,9.70
2019-01-15T05:35:13.535Z,11.60
2019-01-15T05:36:14.624Z,10.50
2019-01-15T05:37:13.467Z,9.80
2019-01-15T05:38:13.513Z,10.30
2019-01-15T05:39:13.452Z,11.00
2019-01-15T05:40:13.484Z,11.20
2019-01-15T05:41:13.437Z,10.70
2019-01-15T05:42:13.427Z,10.10
2019-01-15T05:43:13.452Z,9.90
2019-01-15T05:44:13.406Z,10.40
2019-01-15T05:45:13.424Z,10.40
2019-01-15T05:46:13.421Z,9.60
2019-01-15T05:47:13.387Z,9.70
2019-01-15T05:48:13.353Z,9.60
2019-01-15T05:49:13.355Z,9.90
2019-01-15T05:50:13.366Z,9.80
2019-01-15T05:51:13.312Z,10.30
2019-01-15T05:52:13.320Z,10.00
2019-01-15T05:53:13.298Z,10.00
2019-01-15T05:54:13.285Z,10.00
2019-01-15T05:55:13.344Z,10.00
2019-01-15T05:56:13.261Z,10.20
2019-01-15T05:57:13.246Z,10.40
2019-01-15T05:58:13.296Z,9.40
2019-01-15T05:59:13.267Z,9.80
2019-01-15T06:00:13.237Z,9.20
2019-01-15T06:01:13.221Z,8.60
2019-01-15T06:02:13.188Z,9.30
2019-01-15T06:03:13.196Z,9.60
2019-01-15T06:04:13.190Z,9.90
2019-01-15T06:05:13.157Z,10.10
2019-01-15T06:06:13.152Z,9.70
2019-01-15T06:07:13.133Z,8.80
2019-01-15T06:08:13.125Z,10.30
2019-01-15T06:09:13.137Z,9.50
2019-01-15T06:10:13.137Z,9.20
2019-01-15T06:11:13.089Z,9.10
2019-01-15T06:12:13.077Z,10.40
2019-01-15T06:13:13.065Z,9.10
2019-01-15T06:14:13.075Z,9.70
2019-01-15T06:15:13.080Z,10.10
2019-01-15T06:16:13.036Z,9.80
2019-01-15T06:17:13.019Z,11.20
2019-01-15T06:18:13.007Z,10.00
2019-01-15T06:19:13.001Z,10.20
2019-01-15T06:20:13.018Z,9.40
2019-01-15T06:21:12.997Z,9.60
2019-01-15T06:22:12.971Z,10.20
2019-01-15T06:23:12.955Z,10.80
2019-01-15T06:24:12.941Z,9.80
2019-01-15T06:25:12.935Z,9.50
2019-01-15T06:26:12.942Z,10.10
2019-01-15T06:27:12.909Z,10.00
2019-01-15T06:28:12.901Z,9.60
2019-01-15T06:29:12.890Z,9.80
2019-01-15T06:30:12.883Z,10.10
2019-01-15T06:31:12.913Z,8.90
2019-01-15T06:32:12.863Z,10.00
2019-01-15T06:33:12.845Z,9.60
2019-01-15T06:34:12.837Z,10.50
2019-01-15T06:35:12.822Z,9.90
2019-01-15T06:36:12.846Z,9.10
2019-01-15T06:37:12.796Z,10.00
2019-01-15T06:38:12.788Z,9.00
2019-01-15T06:39:12.783Z,9.80
2019-01-15T06:40:12.764Z,8.90
2019-01-15T06:41:12.780Z,9.10
2019-01-15T06:42:12.762Z,9.20
2019-01-15T06:43:12.731Z,9.80
2019-01-15T06:44:12.721Z,8.50
2019-01-15T06:45:13.195Z,8.40
2019-01-15T06:46:12.699Z,9.00
2019-01-15T06:47:12.706Z,9.60
2019-01-15T06:48:12.674Z,9.30
2019-01-15T06:49:12.662Z,8.40
2019-01-15T06:50:12.661Z,8.70
2019-01-15T06:51:12.651Z,8.60
2019-01-15T06:52:12.660Z,9.00
2019-01-15T06:53:12.617Z,8.50
2019-01-15T06:54:14.227Z,8.70
2019-01-15T06:55:12.625Z,9.10
2019-01-15T06:56:12.582Z,8.90
2019-01-15T06:57:12.599Z,9.10
2019-01-15T06:58:12.571Z,8.70
2019-01-15T06:59:12.554Z,9.10
2019-01-15T07:00:12.539Z,8.50
2019-01-15T07:01:12.560Z,8.60
2019-01-15T07:02:12.514Z,8.30
2019-01-15T07:03:12.511Z,9.20
2019-01-15T07:04:12.498Z,8.80
2019-01-15T07:05:12.483Z,8.90
2019-01-15T07:06:12.506Z,8.20
2019-01-15T07:07:12.464Z,8.00
2019-01-15T07:08:12.451Z,8.90
2019-01-15T07:09:12.440Z,8.10
2019-01-15T07:10:12.457Z,8.60
2019-01-15T07:11:12.415Z,8.30
2019-01-15T07:12:12.403Z,9.10
2019-01-15T07:13:12.498Z,8.40
2019-01-15T07:14:12.386Z,8.10
2019-01-15T07:15:12.372Z,7.30
2019-01-15T07:16:12.410Z,8.40
2019-01-15T07:17:12.379Z,8.40
2019-01-15T07:18:12.338Z,8.60
2019-01-15T07:19:12.326Z,8.30
2019-01-15T07:20:12.337Z,8.50
2019-01-15T07:21:12.325Z,8.60
2019-01-15T07:22:12.341Z,8.60
2019-01-15T07:23:12.282Z,8.60
2019-01-15T07:24:12.272Z,8.10
2019-01-15T07:25:12.258Z,7.80
2019-01-15T07:26:12.293Z,7.50
2019-01-15T07:27:12.317Z,7.80
2019-01-15T07:28:12.231Z,7.90
2019-01-15T07:29:12.219Z,7.80
2019-01-15T07:30:12.204Z,8.50
2019-01-15T07:31:12.223Z,8.10
2019-01-15T07:32:12.194Z,7.30
2019-01-15T07:33:12.173Z,7.20
2019-01-15T07:34:12.161Z,7.80
2019-01-15T07:35:12.152Z,8.00
2019-01-15T07:36:12.252Z,6.80
2019-01-15T07:37:12.128Z,8.20
2019-01-15T07:38:12.120Z,7.20
2019-01-15T07:39:12.152Z,7.90
2019-01-15T07:40:13.118Z,7.60
2019-01-15T07:41:12.081Z,7.60
2019-01-15T07:42:12.114Z,7.50
2019-01-15T07:43:12.082Z,7.80
2019-01-15T07:44:12.060Z,8.40
2019-01-15T07:45:12.036Z,7.70
2019-01-15T07:46:12.060Z,7.60
2019-01-15T07:47:12.022Z,8.10
2019-01-15T07:48:12.003Z,7.20
2019-01-15T07:49:11.994Z,7.80
2019-01-15T07:50:11.978Z,7.60
2019-01-15T07:51:12.002Z,7.70
2019-01-15T07:52:11.959Z,7.50
2019-01-15T07:53:11.951Z,7.80
2019-01-15T07:54:11.940Z,7.40
2019-01-15T07:55:11.929Z,8.10
2019-01-15T07:56:11.936Z,8.20
2019-01-15T07:57:11.927Z,7.70
2019-01-15T07:58:11.923Z,7.90
2019-01-15T07:59:11.880Z,7.80
2019-01-15T08:00:11.872Z,8.10
2019-01-15T08:01:11.863Z,8.00
2019-01-15T08:02:11.883Z,8.10
2019-01-15T08:03:11.843Z,8.00
2019-01-15T08:04:11.826Z,8.60
2019-01-15T08:05:11.812Z,8.20
2019-01-15T08:06:11.800Z,7.60
2019-01-15T08:07:11.822Z,8.20
2019-01-15T08:08:11.811Z,8.50
2019-01-15T08:09:11.937Z,7.90
2019-01-15T08:10:11.759Z,9.00
2019-01-15T08:11:11.807Z,8.00
2019-01-15T08:12:11.738Z,8.30
2019-01-15T08:13:11.733Z,8.40
2019-01-15T08:14:12.396Z,9.00
2019-01-15T08:15:11.741Z,9.10
2019-01-15T08:16:11.832Z,8.40
2019-01-15T08:17:11.687Z,8.70
2019-01-15T08:18:11.669Z,8.60
2019-01-15T08:19:11.714Z,9.20
2019-01-15T08:20:11.667Z,8.70
2019-01-15T08:21:11.633Z,8.40
2019-01-15T08:22:11.651Z,9.30
2019-01-15T08:23:11.653Z,9.10
2019-01-15T08:24:11.606Z,8.60
2019-01-15T08:25:11.637Z,9.20
2019-01-15T08:26:11.579Z,8.80
2019-01-15T08:27:11.591Z,8.90
2019-01-15T08:28:11.618Z,9.20
2019-01-15T08:29:11.543Z,9.90
2019-01-15T08:30:11.555Z,9.70
2019-01-15T08:31:11.555Z,10.00
2019-01-15T08:32:11.559Z,9.50
2019-01-15T08:33:11.517Z,9.80
2019-01-15T08:34:11.502Z,10.00
2019-01-15T08:35:11.478Z,9.40
2019-01-15T08:36:11.490Z,9.80
2019-01-15T08:37:11.508Z,10.10
2019-01-15T08:38:11.525Z,9.70
2019-01-15T08:39:11.464Z,9.50
2019-01-15T08:40:11.419Z,9.60
2019-01-15T08:41:11.460Z,9.40
2019-01-15T08:42:11.417Z,9.80
2019-01-15T08:43:11.440Z,10.80
2019-01-15T08:44:11.424Z,10.10
2019-01-15T08:45:11.387Z,10.70
2019-01-15T08:46:11.401Z,10.10
2019-01-15T08:47:11.358Z,10.10
2019-01-15T08:48:11.372Z,9.70
2019-01-15T08:49:11.393Z,10.50
2019-01-15T08:50:11.316Z,10.30
2019-01-15T08:51:11.328Z,10.70
2019-01-15T08:52:11.322Z,9.80
2019-01-15T08:53:11.289Z,10.00
2019-01-15T08:54:11.287Z,9.70
2019-01-15T08:55:11.269Z,9.60
2019-01-15T08:56:11.240Z,10.30
2019-01-15T08:57:11.248Z,10.70
2019-01-15T08:58:11.288Z,10.60
2019-01-15T08:59:11.216Z,9.80
2019-01-15T09:00:11.199Z,10.80
2019-01-15T09:01:11.213Z,10.50
2019-01-15T09:02:11.174Z,9.90
2019-01-15T09:03:11.215Z,10.40
2019-01-15T09:04:11.190Z,10.90
2019-01-15T09:05:11.164Z,11.00
2019-01-15T09:06:11.156Z,11.90
2019-01-15T09:07:11.135Z,10.50
2019-01-15T09:08:11.114Z,10.50
2019-01-15T09:09:11.103Z,10.60
2019-01-15T09:10:11.126Z,11.20
2019-01-15T09:11:11.129Z,11.40
2019-01-15T09:12:11.141Z,11.00
2019-01-15T09:13:11.102Z,12.00
2019-01-15T09:14:11.166Z,11.40
2019-01-15T09:15:11.063Z,11.80
2019-01-15T09:16:11.057Z,11.20
2019-01-15T09:17:11.294Z,11.60
2019-01-15T09:18:11.026Z,12.10
2019-01-15T09:19:11.036Z,12.40
2019-01-15T09:20:11.014Z,11.50
2019-01-15T09:21:11.063Z,11.10
2019-01-15T09:22:10.998Z,10.60
2019-01-15T09:23:10.968Z,11.50
2019-01-15T09:24:10.958Z,10.40
2019-01-15T09:25:10.922Z,11.50
2019-01-15T09:26:10.931Z,12.20
2019-01-15T09:27:10.941Z,11.00
2019-01-15T09:28:10.896Z,11.30
2019-01-15T09:29:10.915Z,11.50
2019-01-15T09:30:10.903Z,11.80
2019-01-15T09:31:10.887Z,11.60
2019-01-15T09:32:10.854Z,11.00
2019-01-15T09:33:10.858Z,11.00
2019-01-15T09:34:10.825Z,11.60
2019-01-15T09:35:10.844Z,12.00
2019-01-15T09:36:10.821Z,11.00
2019-01-15T09:37:10.785Z,11.50
2019-01-15T09:38:10.773Z,11.30
2019-01-15T09:39:10.770Z,11.60
2019-01-15T09:40:10.782Z,11.90
2019-01-15T09:41:10.773Z,11.50
2019-01-15T09:42:10.731Z,10.90
2019-01-15T09:43:10.722Z,11.50
2019-01-15T09:44:10.709Z,11.60
2019-01-15T09:45:10.714Z,10.90
2019-01-15T09:46:10.732Z,11.70
2019-01-15T09:47:10.693Z,11.70
2019-01-15T09:48:10.666Z,12.30
2019-01-15T09:49:10.680Z,12.10
2019-01-15T09:50:10.645Z,11.50
2019-01-15T09:51:10.637Z,11.00
2019-01-15T09:52:13.028Z,11.40
2019-01-15T09:53:11.629Z,12.00
2019-01-15T09:54:10.600Z,11.20
2019-01-15T09:55:10.589Z,11.40
2019-01-15T09:56:10.608Z,12.50
2019-01-15T09:57:10.605Z,11.90
2019-01-15T09:58:10.558Z,11.70
2019-01-15T09:59:10.546Z,12.40
2019-01-15T10:00:10.572Z,12.30
2019-01-15T10:01:10.522Z,12.00
2019-01-15T10:02:10.539Z,12.80
2019-01-15T10:03:10.528Z,12.30
2019-01-15T10:04:10.502Z,11.30
2019-01-15T10:05:10.500Z,12.80
2019-01-15T10:06:10.466Z,12.30
2019-01-15T10:07:10.453Z,12.20
2019-01-15T10:08:10.468Z,12.30
2019-01-15T10:09:10.447Z,11.80
2019-01-15T10:10:10.438Z,11.30
2019-01-15T10:11:10.436Z,10.90
2019-01-15T10:12:10.422Z,11.70
2019-01-15T10:13:10.391Z,12.00
2019-01-15T10:14:10.385Z,11.20
2019-01-15T10:15:10.417Z,10.90
2019-01-15T10:16:11.321Z,11.40
2019-01-15T10:17:10.393Z,11.80
2019-01-15T10:18:10.339Z,11.10
2019-01-15T10:19:10.325Z,10.70
2019-01-15T10:20:10.316Z,11.20
2019-01-15T10:21:10.312Z,11.40
2019-01-15T10:22:10.346Z,11.10
2019-01-15T10:23:10.283Z,11.10
2019-01-15T10:24:10.297Z,11.40
2019-01-15T10:25:10.271Z,10.30
2019-01-15T10:26:10.275Z,11.00
2019-01-15T10:27:10.288Z,10.70
2019-01-15T10:28:10.251Z,10.80
2019-01-15T10:29:10.253Z,12.80
2019-01-15T10:30:10.220Z,11.40
2019-01-15T10:31:10.225Z,11.70
2019-01-15T10:32:10.195Z,11.30
2019-01-15T10:33:10.195Z,12.30
2019-01-15T10:34:10.278Z,11.90
2019-01-15T10:35:10.157Z,10.70
2019-01-15T10:36:10.146Z,11.00
2019-01-15T10:37:10.139Z,11.90
2019-01-15T10:38:10.131Z,12.00
2019-01-15T10:39:10.151Z,11.90
2019-01-15T10:40:10.104Z,11.20
2019-01-15T10:41:11.574Z,11.80
2019-01-15T10:42:10.087Z,11.90
2019-01-15T10:43:10.087Z,11.70
2019-01-15T10:44:10.110Z,10.90
2019-01-15T10:45:10.064Z,11.30
2019-01-15T10:46:10.063Z,12.00
2019-01-15T10:47:10.039Z,11.80
2019-01-15T10:48:10.024Z,11.80
2019-01-15T10:49:10.017Z,12.20
2019-01-15T10:50:10.001Z,12.10
2019-01-15T10:51:10.028Z,11.40
2019-01-15T10:52:09.978Z,11.20
2019-01-15T10:53:10.017Z,12.00
2019-01-15T10:54:09.981Z,11.70
2019-01-15T10:55:09.961Z,11.40
2019-01-15T10:56:09.965Z,12.00
2019-01-15T10:57:09.998Z,11.70
2019-01-15T10:58:09.927Z,12.10
2019-01-15T10:59:09.969Z,11.70
2019-01-15T11:00:09.897Z,11.20
2019-01-15T11:01:09.935Z,12.20
2019-01-15T11:02:09.936Z,11.20
2019-01-15T11:03:09.928Z,11.80
2019-01-15T11:04:09.878Z,12.20
2019-01-15T11:05:09.876Z,11.30
2019-01-15T11:06:09.858Z,11.90
2019-01-15T11:07:10.275Z,11.70
2019-01-15T11:08:09.820Z,11.50
2019-01-15T11:09:09.827Z,11.70
2019-01-15T11:10:09.866Z,11.80
2019-01-15T11:11:09.805Z,11.70
2019-01-15T11:12:09.786Z,11.50
2019-01-15T11:13:09.774Z,12.00
2019-01-15T11:14:09.753Z,11.70
2019-01-15T11:15:09.755Z,11.50
2019-01-15T11:16:09.752Z,11.80
2019-01-15T11:17:09.721Z,11.80
2019-01-15T11:18:09.760Z,12.30
2019-01-15T11:19:09.698Z,11.60
2019-01-15T11:20:09.684Z,12.10
2019-01-15T11:21:09.676Z,10.90
2019-01-15T11:22:09.691Z,11.00
2019-01-15T11:23:09.654Z,11.30
2019-01-15T11:24:09.642Z,11.20
2019-01-15T11:25:11.258Z,11.10
2019-01-15T11:26:09.628Z,11.60
2019-01-15T11:27:09.666Z,10.80
2019-01-15T11:28:09.599Z,10.80
2019-01-15T11:29:09.618Z,10.30
2019-01-15T11:30:09.579Z,10.20
2019-01-15T11:31:09.568Z,9.80
2019-01-15T11:32:10.790Z,10.50
2019-01-15T11:33:09.558Z,10.40
2019-01-15T11:34:09.577Z,10.20
2019-01-15T11:35:09.529Z,9.70
2019-01-15T11:36:09.518Z,10.00
2019-01-15T11:37:09.525Z,9.50
2019-01-15T11:38:09.524Z,9.40
2019-01-15T11:39:09.537Z,8.90
2019-01-15T11:40:09.475Z,8.70
2019-01-15T11:41:09.467Z,8.80
2019-01-15T11:42:09.466Z,7.80
2019-01-15T11:43:09.447Z,7.90
2019-01-15T11:44:09.463Z,8.10
2019-01-15T11:45:09.449Z,7.30
2019-01-15T11:46:09.415Z,7.80
2019-01-15T11:47:09.407Z,7.80
2019-01-15T11:48:09.432Z,7.70
2019-01-15T11:49:09.386Z,7.80
2019-01-15T11:50:09.415Z,7.70
2019-01-15T11:51:09.365Z,7.00
2019-01-15T11:52:09.349Z,6.80
2019-01-15T11:53:09.341Z,7.30
2019-01-15T11:54:09.334Z,6.10
2019-01-15T11:55:09.369Z,5.60
2019-01-15T11:56:09.317Z,5.60
2019-01-15T11:57:09.296Z,5.40
2019-01-15T11:58:09.293Z,5.80
2019-01-15T11:59:09.273Z,5.60
2019-01-15T12:00:09.294Z,5.00
2019-01-15T12:01:09.251Z,5.40
2019-01-15T12:02:09.273Z,4.40
2019-01-15T12:03:09.234Z,4.80
2019-01-15T12:04:09.249Z,4.90
2019-01-15T12:05:09.224Z,4.80
2019-01-15T12:06:09.262Z,5.10
2019-01-15T12:07:09.191Z,4.50
2019-01-15T12:08:09.182Z,4.30
2019-01-15T12:09:09.171Z,4.10
2019-01-15T12:10:09.165Z,4.40
2019-01-15T12:11:09.183Z,4.50
2019-01-15T12:12:09.152Z,4.40
2019-01-15T12:13:09.149Z,4.40
2019-01-15T12:14:09.113Z,4.50
2019-01-15T12:15:11.059Z,4.40
2019-01-15T12:16:09.099Z,4.60
2019-01-15T12:17:09.103Z,4.30
2019-01-15T12:18:09.136Z,4.30
2019-01-15T12:19:09.097Z,5.00
2019-01-15T12:20:09.053Z,4.30
2019-01-15T12:21:09.049Z,4.30
2019-01-15T12:22:09.040Z,4.60
2019-01-15T12:23:09.045Z,4.70
2019-01-15T12:24:09.013Z,4.70
2019-01-15T12:25:09.006Z,4.50
2019-01-15T12:26:09.003Z,4.70
2019-01-15T12:27:08.980Z,4.40
2019-01-15T12:28:08.999Z,4.20
2019-01-15T12:29:08.990Z,4.50
2019-01-15T12:30:08.950Z,4.50
2019-01-15T12:31:08.940Z,4.60
2019-01-15T12:32:08.920Z,3.80
2019-01-15T12:33:08.960Z,4.30
2019-01-15T12:34:08.917Z,4.40
2019-01-15T12:35:08.889Z,4.30
2019-01-15T12:36:08.879Z,4.20
2019-01-15T12:37:08.868Z,4.50
2019-01-15T12:38:08.880Z,4.40
2019-01-15T12:39:08.845Z,4.20
2019-01-15T12:40:08.860Z,4.20
2019-01-15T12:41:08.826Z,4.90
2019-01-15T12:42:08.864Z,4.70
2019-01-15T12:43:08.805Z,4.70
2019-01-15T12:44:08.798Z,4.10
2019-01-15T12:45:08.782Z,4.70
2019-01-15T12:46:08.780Z,4.20
2019-01-15T12:47:08.789Z,4.30
2019-01-15T12:48:08.831Z,4.00
2019-01-15T12:49:08.751Z,4.70
2019-01-15T12:50:08.740Z,4.40
2019-01-15T12:51:08.791Z,4.60
2019-01-15T12:52:08.715Z,4.20
2019-01-15T12:53:08.709Z,4.40
2019-01-15T12:54:08.700Z,4.10
2019-01-15T12:55:08.681Z,4.20
2019-01-15T12:56:08.721Z,4.70
2019-01-15T12:57:08.660Z,4.80
2019-01-15T12:58:08.672Z,4.60
2019-01-15T12:59:08.650Z,4.30
2019-01-15T13:00:08.631Z,4.60
2019-01-15T13:01:08.619Z,4.40